Time;durP1;ratioP1;P1;durP2;ratioP2;P2;SDS_P1;SDS_P2;PMS_P1;PMS_P2;Temp;Humidity;BMP_temperature;BMP_pressure;BME280_temperature;BME280_humidity;BME280_pressure;Samples;Min_cycle;Max_cycle;Signal;HPM_P1;HPM_P2
2022/11/23 00:01:56;;;;;;;5.50;2.23;;;-0.40;60.80;0.40;92628.00;;;;7398964;19;20132;-76
2022/11/23 00:04:29;;;;;;;5.60;2.40;;;-0.30;39.30;0.50;92619.00;;;;7400713;19;20159;-76
2022/11/23 00:06:56;;;;;;;5.33;1.90;;;-0.10;31.30;0.40;92616.00;;;;7399179;19;20157;-76
2022/11/23 00:09:23;;;;;;;7.73;2.20;;;-0.10;37.80;0.50;92626.00;;;;7399197;19;20133;-76
2022/11/23 00:11:57;;;;;;;12.67;1.93;;;0.00;33.20;0.60;92615.00;;;;7398700;19;20196;-77
2022/11/23 00:14:24;;;;;;;12.63;2.30;;;0.10;36.20;0.80;92627.00;;;;7396922;19;20248;-76
2022/11/23 00:16:52;;;;;;;11.53;2.40;;;0.20;30.40;0.80;92623.00;;;;7399924;19;20704;-76
2022/11/23 00:19:31;;;;;;;6.10;2.37;;;0.20;38.30;0.80;92627.00;;;;7396366;19;20165;-76
2022/11/23 00:22:05;;;;;;;6.70;2.43;;;0.30;37.80;1.00;92630.00;;;;7398715;19;20117;-76
2022/11/23 00:24:38;;;;;;;10.67;2.77;;;0.40;31.70;1.00;92630.00;;;;7398036;19;20619;-76
2022/11/23 00:27:05;;;;;;;10.37;2.30;;;0.50;35.50;1.00;92641.00;;;;7398413;19;20186;-76
2022/11/23 00:29:32;;;;;;;7.40;2.60;;;0.50;1.00;1.10;92640.00;;;;7397109;19;20612;-76
2022/11/23 00:32:06;;;;;;;7.90;2.57;;;0.50;1.00;0.90;92622.00;;;;7398070;19;20188;-76
2022/11/23 00:34:33;;;;;;;11.93;2.67;;;0.50;1.00;0.80;92627.00;;;;7396871;19;20129;-76
2022/11/23 00:37:00;;;;;;;7.40;2.40;;;0.40;1.00;0.70;92640.00;;;;7395565;19;20182;-76
2022/11/23 00:39:34;;;;;;;10.77;2.53;;;0.40;1.00;0.70;92626.00;;;;7397616;19;20125;-76
2022/11/23 00:42:01;;;;;;;7.40;2.23;;;0.30;1.00;0.60;92612.00;;;;7397616;19;20157;-76
2022/11/23 00:44:31;;;;;;;5.40;2.00;;;0.20;1.00;0.50;92610.00;;;;7397263;19;20145;-76
2022/11/23 00:47:04;;;;;;;6.30;1.83;;;0.20;5.80;0.30;92619.00;;;;7397724;19;20145;-76
2022/11/23 00:49:31;;;;;;;7.37;2.00;;;0.00;1.00;0.20;92619.00;;;;7397526;19;20202;-75
2022/11/23 00:51:58;;;;;;;11.03;1.90;;;-0.10;1.00;0.30;92604.00;;;;7397348;19;20203;-76
2022/11/23 00:54:32;;;;;;;5.57;2.30;;;-0.10;1.00;0.00;92617.00;;;;7397345;19;20144;-76
2022/11/23 00:56:59;;;;;;;7.67;2.37;;;-0.30;1.00;-0.10;92604.00;;;;7396055;19;20168;-76
2022/11/23 00:59:28;;;;;;;6.23;3.03;;;-0.50;1.00;-0.30;92621.00;;;;7396049;19;20196;-76
2022/11/23 01:02:01;;;;;;;10.40;2.40;;;-0.60;1.00;-0.40;92612.00;;;;7398102;19;20132;-76
2022/11/23 01:04:28;;;;;;;9.70;2.30;;;-0.80;3.90;-0.50;92620.00;;;;7397876;19;20129;-76
2022/11/23 01:06:58;;;;;;;4.33;2.30;;;-0.90;9.50;-0.50;92611.00;;;;7396888;19;20223;-76
2022/11/23 01:09:32;;;;;;;6.07;2.00;;;-1.00;9.40;-0.40;92614.00;;;;7404523;19;20121;-76
2022/11/23 01:11:59;;;;;;;10.53;2.43;;;-1.00;31.60;-0.40;92622.00;;;;7404372;19;20148;-76
2022/11/23 01:14:26;;;;;;;6.43;2.43;;;-1.00;33.30;-0.40;92604.00;;;;7402451;19;20168;-77
2022/11/23 01:17:00;;;;;;;6.87;1.90;;;-1.00;39.30;-0.40;92624.00;;;;7404541;19;20145;-77
2022/11/23 01:19:33;;;;;;;11.40;2.07;;;-1.00;54.90;-0.30;92611.00;;;;7401454;19;20171;-76
2022/11/23 01:22:14;;;;;;;5.40;2.20;;;-1.00;62.40;-0.40;92628.00;;;;7404129;19;20149;-76
2022/11/23 01:24:41;;;;;;;7.47;2.07;;;-1.00;69.30;-0.40;92611.00;;;;7404546;19;20599;-76
2022/11/23 01:27:15;;;;;;;18.07;2.33;;;-0.90;80.50;-0.60;92608.00;;;;7405024;19;20475;-76
2022/11/23 01:29:42;;;;;;;7.83;1.87;;;-1.00;92.90;-0.50;92610.00;;;;7403884;19;20635;-77
2022/11/23 01:32:09;;;;;;;6.03;1.90;;;-1.00;99.90;-0.60;92611.00;;;;7405858;19;20188;-76
2022/11/23 01:34:43;;;;;;;15.17;1.90;;;-1.10;99.90;-0.70;92620.00;;;;7403831;19;20513;-76
2022/11/23 01:37:10;;;;;;;13.97;2.77;;;-1.10;99.90;-0.80;92611.00;;;;7403721;19;20241;-76
2022/11/23 01:39:37;;;;;;;6.57;2.20;;;-1.10;99.90;-0.50;92608.00;;;;7402997;19;20525;-76
2022/11/23 01:42:11;;;;;;;9.80;2.33;;;-1.10;99.90;-0.60;92602.00;;;;7404090;19;20157;-76
2022/11/23 01:44:43;;;;;;;9.80;2.27;;;-1.10;99.90;-0.70;92613.00;;;;7403504;19;20475;-76
2022/11/23 01:47:11;;;;;;;8.80;1.80;;;-1.10;99.90;-0.60;92623.00;;;;7403850;19;20165;-76
2022/11/23 01:49:50;;;;;;;6.13;1.90;;;-1.10;99.90;-0.50;92614.00;;;;7401663;19;20140;-76
2022/11/23 01:52:23;;;;;;;6.93;2.03;;;-1.00;99.90;-0.30;92626.00;;;;7402711;19;20127;-76
2022/11/23 01:54:58;;;;;;;5.60;1.77;;;-0.90;99.90;-0.10;92611.00;;;;7403730;19;20149;-76
2022/11/23 01:57:41;;;;;;;6.87;1.90;;;-0.80;99.90;0.10;92615.00;;;;7403105;19;20128;-76
2022/11/23 02:00:15;;;;;;;9.70;2.10;;;-0.60;99.90;0.00;92600.00;;;;7399863;19;20141;-76
2022/11/23 02:02:52;;;;;;;5.67;1.40;;;-0.60;99.90;-0.10;92611.00;;;;7403119;19;20151;-76
2022/11/23 02:05:45;;;;;;;7.50;1.60;;;-0.60;66.50;0.00;92626.00;;;;7402758;19;20121;-76
2022/11/23 02:08:16;;;;;;;6.27;2.20;;;-0.60;99.90;0.00;92621.00;;;;7402020;19;20544;-76
2022/11/23 02:10:49;;;;;;;8.33;1.80;;;-0.50;99.90;0.00;92628.00;;;;7402824;19;20138;-76
2022/11/23 02:13:17;;;;;;;8.80;1.93;;;-0.50;99.90;0.20;92623.00;;;;7402871;19;20173;-76
2022/11/23 02:15:44;;;;;;;6.87;1.73;;;-0.50;99.90;0.10;92633.00;;;;7403666;19;20150;-76
2022/11/23 02:18:25;;;;;;;4.50;1.80;;;-0.40;99.90;0.10;92621.00;;;;7401601;19;20607;-76
2022/11/23 02:21:01;;;;;;;7.03;2.20;;;-0.40;99.90;-0.20;92633.00;;;;7400173;19;20172;-76
2022/11/23 02:24:19;;;;;;;15.97;2.43;;;-0.50;99.90;-0.40;92644.00;;;;7402844;19;20198;-76
2022/11/23 02:26:46;;;;;;;9.93;2.20;;;-0.70;99.90;-0.50;92631.00;;;;7401346;19;20507;-76
2022/11/23 02:29:24;;;;;;;6.17;1.77;;;-0.90;99.90;-0.50;92655.00;;;;7402341;19;20176;-76
2022/11/23 02:31:53;;;;;;;9.17;2.00;;;-1.00;1.00;-0.40;92655.00;;;;7401566;19;20137;-76
2022/11/23 02:34:27;;;;;;;13.53;1.77;;;-0.90;1.00;-0.50;92643.00;;;;7401768;19;20659;-77
2022/11/23 02:36:56;;;;;;;9.40;2.43;;;-1.00;1.00;-0.50;92640.00;;;;7401536;19;20148;-76
2022/11/23 02:39:33;;;;;;;6.10;1.90;;;-1.00;1.00;-0.50;92655.00;;;;7400707;19;20129;-77
2022/11/23 02:42:07;;;;;;;8.57;2.07;;;-1.00;9.50;-0.50;92648.00;;;;7402848;19;20133;-77
2022/11/23 02:44:52;;;;;;;10.30;1.90;;;-1.00;1.00;-0.40;92617.00;;;;7401303;19;20205;-77
2022/11/23 02:47:26;;;;;;;12.97;2.03;;;-0.90;1.00;-0.40;92623.00;;;;7401014;19;20132;-77
2022/11/23 02:49:53;;;;;;;7.77;1.80;;;-0.80;4.20;-0.20;92643.00;;;;7401403;19;20125;-77
2022/11/23 02:52:20;;;;;;;10.73;2.53;;;-0.80;1.00;-0.10;92615.00;;;;7399568;19;20151;-76
2022/11/23 02:54:54;;;;;;;8.13;1.97;;;-0.60;1.00;0.10;92639.00;;;;7401367;19;20189;-77
2022/11/23 02:57:21;;;;;;;10.77;2.27;;;-0.50;1.00;0.20;92639.00;;;;7400623;19;20157;-76
2022/11/23 02:59:49;;;;;;;8.10;2.23;;;-0.30;1.00;0.30;92635.00;;;;7399657;19;20141;-76
2022/11/23 03:02:22;;;;;;;10.20;1.97;;;-0.20;1.00;0.10;92627.00;;;;7401301;19;20133;-76
2022/11/23 03:04:49;;;;;;;7.70;2.10;;;-0.30;1.00;0.10;92632.00;;;;7401965;19;20137;-76
2022/11/23 03:07:16;;;;;;;7.80;2.00;;;-0.30;1.00;0.10;92631.00;;;;7401036;19;20619;-76
2022/11/23 03:09:50;;;;;;;9.53;2.03;;;-0.30;1.00;0.10;92638.00;;;;7400861;19;20141;-76
2022/11/23 03:12:17;;;;;;;6.77;2.30;;;-0.40;1.00;0.20;92645.00;;;;7402101;19;20137;-76
2022/11/23 03:14:44;;;;;;;5.40;1.90;;;-0.40;1.00;0.20;92645.00;;;;7398135;19;20241;-76
2022/11/23 03:17:17;;;;;;;6.07;2.10;;;-0.30;1.00;0.30;92629.00;;;;7400562;19;20600;-76
2022/11/23 03:19:57;;;;;;;9.27;2.20;;;-0.20;1.00;0.50;92645.00;;;;7398872;19;20642;-76
2022/11/23 03:22:33;;;;;;;12.00;1.97;;;-0.10;1.00;0.50;92639.00;;;;7399059;19;20200;-76
2022/11/23 03:25:00;;;;;;;6.40;2.37;;;0.00;3.10;0.60;92640.00;;;;7400208;19;20251;-76
2022/11/23 03:27:28;;;;;;;7.00;2.23;;;0.10;6.20;0.80;92632.00;;;;7399954;19;20128;-76
2022/11/23 03:30:01;;;;;;;12.17;2.47;;;0.20;8.10;0.70;92635.00;;;;7400119;19;20112;-77
2022/11/23 03:32:28;;;;;;;8.97;1.70;;;0.20;10.10;0.50;92658.00;;;;7400984;19;20188;-76
2022/11/23 03:34:55;;;;;;;7.70;2.53;;;0.20;12.60;0.40;92650.00;;;;7399963;19;20152;-76
2022/11/23 03:37:28;;;;;;;9.97;2.23;;;0.00;11.20;0.30;92650.00;;;;7401236;19;20530;-76
2022/11/23 03:39:55;;;;;;;8.13;2.17;;;-0.10;7.90;0.40;92650.00;;;;7399877;19;20456;-76
2022/11/23 03:42:22;;;;;;;9.30;2.27;;;-0.10;5.20;0.30;92651.00;;;;7399282;19;20483;-76
2022/11/23 03:44:55;;;;;;;6.83;2.00;;;-0.20;5.30;0.20;92649.00;;;;7401327;19;20129;-76
2022/11/23 03:47:22;;;;;;;8.63;1.97;;;-0.20;7.10;0.30;92643.00;;;;7400124;19;20201;-76
2022/11/23 03:49:49;;;;;;;12.60;2.10;;;-0.30;1.00;0.10;92647.00;;;;7400823;19;20132;-76
2022/11/23 03:52:23;;;;;;;12.53;2.10;;;-0.30;2.70;-0.10;92644.00;;;;7399238;19;20485;-76
2022/11/23 03:54:50;;;;;;;9.40;2.10;;;-0.50;2.10;-0.10;92642.00;;;;7399284;19;20153;-76
2022/11/23 03:57:20;;;;;;;5.57;1.80;;;-0.50;2.30;-0.20;92635.00;;;;7399544;19;20261;-76
2022/11/23 03:59:53;;;;;;;10.17;2.10;;;-0.60;4.10;-0.10;92629.00;;;;7398465;19;20144;-76
2022/11/23 04:02:20;;;;;;;7.47;2.20;;;-0.60;3.70;0.20;92633.00;;;;7400185;19;20129;-76
2022/11/23 04:04:47;;;;;;;8.43;2.43;;;-0.40;1.00;0.60;92628.00;;;;7400310;19;20125;-76
2022/11/23 04:07:21;;;;;;;10.73;2.43;;;-0.10;1.00;0.90;92630.00;;;;7399091;19;20137;-76
2022/11/23 04:09:48;;;;;;;10.47;2.93;;;0.20;1.00;1.10;92629.00;;;;7398011;19;20156;-76
2022/11/23 04:12:15;;;;;;;11.97;2.77;;;0.40;22.70;1.40;92619.00;;;;7398883;19;20125;-76
2022/11/23 04:14:49;;;;;;;18.80;2.83;;;0.70;11.10;1.80;92629.00;;;;7397232;19;20566;-77
2022/11/23 04:17:17;;;;;;;7.43;2.77;;;1.00;8.40;1.80;92621.00;;;;7398674;19;20137;-76
2022/11/23 04:19:44;;;;;;;10.50;3.33;;;1.10;12.80;1.90;92623.00;;;;7395458;19;20970;-76
2022/11/23 04:22:24;;;;;;;7.20;2.60;;;1.20;7.90;1.90;92622.00;;;;7398617;19;20145;-76
2022/11/23 04:24:51;;;;;;;11.40;2.87;;;1.30;6.90;1.90;92623.00;;;;7398236;19;20144;-76
2022/11/23 04:27:26;;;;;;;11.47;3.10;;;1.30;12.50;2.00;92618.00;;;;7398717;19;20512;-76
2022/11/23 04:29:53;;;;;;;8.87;3.00;;;1.30;12.60;2.00;92629.00;;;;7398101;19;20141;-77
2022/11/23 04:32:20;;;;;;;14.30;2.80;;;1.30;16.30;1.80;92608.00;;;;7397959;19;20145;-76
2022/11/23 04:34:54;;;;;;;11.13;2.57;;;1.20;21.70;1.60;92616.00;;;;7398048;19;20140;-76
2022/11/23 04:37:22;;;;;;;12.13;2.70;;;1.10;33.50;1.40;92621.00;;;;7399067;19;20601;-76
2022/11/23 04:39:49;;;;;;;7.17;2.90;;;1.00;22.90;1.30;92625.00;;;;7396574;19;20133;-76
2022/11/23 04:42:22;;;;;;;9.10;2.80;;;0.90;23.50;1.20;92612.00;;;;7395222;19;20184;-76
2022/11/23 04:44:49;;;;;;;9.07;2.60;;;0.80;22.30;1.20;92617.00;;;;7398015;19;20149;-76
2022/11/23 04:47:16;;;;;;;8.60;2.17;;;0.70;38.20;1.10;92609.00;;;;7397892;19;20200;-76
2022/11/23 04:49:50;;;;;;;9.17;2.63;;;0.70;24.60;0.90;92624.00;;;;7397340;19;20607;-76
2022/11/23 04:52:17;;;;;;;15.40;2.83;;;0.50;31.60;0.70;92616.00;;;;7397267;19;20160;-76
2022/11/23 04:54:44;;;;;;;10.30;2.77;;;0.40;33.00;0.40;92624.00;;;;7396981;19;20587;-76
2022/11/23 04:57:18;;;;;;;13.33;2.80;;;0.20;35.60;0.20;92617.00;;;;7396210;19;20524;-75
2022/11/23 04:59:45;;;;;;;10.10;2.47;;;0.00;38.20;0.20;92624.00;;;;7396611;19;20124;-76
2022/11/23 05:02:12;;;;;;;10.97;2.27;;;-0.10;40.90;0.40;92618.00;;;;7397233;19;20674;-76
2022/11/23 05:04:46;;;;;;;7.87;2.37;;;-0.10;45.10;0.80;92629.00;;;;7396747;19;20124;-76
2022/11/23 05:07:13;;;;;;;10.87;2.40;;;0.20;36.70;1.00;92632.00;;;;7397291;19;20206;-76
2022/11/23 05:09:40;;;;;;;9.53;3.00;;;0.40;46.20;1.10;92644.00;;;;7396857;19;20123;-75
2022/11/23 05:12:14;;;;;;;7.10;2.50;;;0.40;57.50;1.30;92633.00;;;;7398554;19;20116;-76
2022/11/23 05:14:42;;;;;;;4.70;2.77;;;0.60;55.80;1.10;92626.00;;;;7395358;19;20248;-75
2022/11/23 05:17:09;;;;;;;13.77;2.90;;;0.60;67.70;1.10;92619.00;;;;7396869;19;20149;-75
2022/11/23 05:19:49;;;;;;;9.53;2.77;;;0.60;72.80;1.00;92630.00;;;;7395900;19;20144;-75
2022/11/23 05:22:15;;;;;;;8.60;3.27;;;0.60;74.90;0.80;92624.00;;;;7396610;19;20494;-76
2022/11/23 05:24:49;;;;;;;15.40;2.93;;;0.50;79.70;0.80;92629.00;;;;7396954;19;20121;-75
2022/11/23 05:27:16;;;;;;;14.00;2.97;;;0.40;76.90;0.90;92617.00;;;;7395558;19;20133;-76
2022/11/23 05:29:43;;;;;;;15.10;3.50;;;0.30;76.20;0.90;92612.00;;;;7396877;19;20137;-76
2022/11/23 05:32:17;;;;;;;6.97;2.97;;;0.40;71.90;0.90;92619.00;;;;7396490;19;20128;-76
2022/11/23 05:34:44;;;;;;;13.53;3.40;;;0.40;77.70;0.90;92616.00;;;;7396247;19;20141;-76
2022/11/23 05:37:11;;;;;;;13.33;3.60;;;0.40;77.80;1.00;92626.00;;;;7395810;19;20591;-75
2022/11/23 05:39:45;;;;;;;8.40;3.40;;;0.50;81.00;1.00;92619.00;;;;7395977;19;20129;-76
2022/11/23 05:42:12;;;;;;;11.00;4.07;;;0.50;83.60;1.20;92626.00;;;;7395912;19;20164;-76
2022/11/23 05:44:39;;;;;;;20.77;4.73;;;0.60;90.90;1.30;92619.00;;;;7396290;19;20633;-76
2022/11/23 05:47:13;;;;;;;9.67;3.67;;;0.70;97.10;1.60;92624.00;;;;7395737;19;20659;-77
2022/11/23 05:49:40;;;;;;;14.77;4.10;;;0.90;97.40;1.70;92616.00;;;;7397454;19;20129;-77
2022/11/23 05:52:07;;;;;;;15.63;4.23;;;1.00;99.90;1.80;92627.00;;;;7395431;19;20129;-76
2022/11/23 05:54:41;;;;;;;18.03;5.10;;;1.10;99.90;1.70;92629.00;;;;7402960;19;20448;-77
2022/11/23 05:57:09;;;;;;;20.57;4.17;;;1.20;99.90;2.00;92632.00;;;;7401031;19;20543;-76
2022/11/23 05:59:36;;;;;;;14.47;4.10;;;1.20;99.90;1.90;92611.00;;;;7403340;19;20205;-77
2022/11/23 06:02:09;;;;;;;12.57;4.57;;;1.20;99.90;1.80;92617.00;;;;7403499;19;20142;-77
2022/11/23 06:04:43;;;;;;;18.23;4.60;;;1.20;99.90;1.70;92614.00;;;;7402472;19;20146;-76
2022/11/23 06:07:16;;;;;;;12.27;4.17;;;1.20;99.90;1.50;92638.00;;;;7403037;19;20204;-77
2022/11/23 06:09:43;;;;;;;14.37;3.97;;;1.00;99.90;1.40;92630.00;;;;7403303;19;20148;-77
2022/11/23 06:12:10;;;;;;;13.57;4.43;;;1.00;99.90;1.50;92639.00;;;;7401944;19;20157;-76
2022/11/23 06:14:44;;;;;;;15.90;4.63;;;0.90;99.90;1.60;92624.00;;;;7401620;19;20133;-76
2022/11/23 06:17:11;;;;;;;11.40;4.40;;;1.00;99.90;1.50;92634.00;;;;7402141;19;20129;-76
2022/11/23 06:19:38;;;;;;;18.77;4.97;;;0.90;99.90;1.50;92623.00;;;;7402656;19;20588;-77
2022/11/23 06:22:19;;;;;;;15.40;4.63;;;0.90;99.90;1.50;92634.00;;;;7402037;19;20121;-76
2022/11/23 06:24:46;;;;;;;16.20;4.43;;;1.00;99.90;1.50;92619.00;;;;7402524;19;20196;-76
2022/11/23 06:27:20;;;;;;;16.23;4.27;;;0.90;99.90;1.30;92622.00;;;;7403464;19;20189;-77
2022/11/23 06:29:47;;;;;;;16.40;4.30;;;0.90;99.90;1.40;92634.00;;;;7402241;19;20152;-77
2022/11/23 06:32:15;;;;;;;10.73;3.93;;;0.90;99.90;1.50;92647.00;;;;7400100;19;20216;-78
2022/11/23 06:34:50;;;;;;;15.57;3.90;;;0.90;99.90;1.40;92625.00;;;;7401822;19;20135;-77
2022/11/23 06:37:18;;;;;;;11.60;4.30;;;0.90;99.90;1.40;92626.00;;;;7400584;19;20453;-78
2022/11/23 06:39:45;;;;;;;12.77;4.03;;;0.80;99.90;1.20;92622.00;;;;7399895;19;20615;-78
2022/11/23 06:42:19;;;;;;;15.70;3.80;;;0.80;99.90;1.30;92612.00;;;;7402331;19;20140;-78
2022/11/23 06:45:08;;;;;;;13.93;3.70;;;0.70;99.90;1.20;92640.00;;;;7401949;19;20177;-79
2022/11/23 06:47:42;;;;;;;18.23;3.93;;;0.70;99.90;1.20;92618.00;;;;7400112;19;20132;-77
2022/11/23 06:50:10;;;;;;;14.77;4.07;;;0.70;99.90;1.30;92638.00;;;;7400604;19;20148;-77
2022/11/23 06:52:37;;;;;;;15.03;3.60;;;0.70;99.90;1.30;92633.00;;;;7400936;19;20512;-77
2022/11/23 06:55:10;;;;;;;17.40;4.13;;;0.70;99.90;1.10;92628.00;;;;7400553;19;20160;-77
2022/11/23 06:57:37;;;;;;;14.80;3.70;;;0.70;99.90;1.40;92626.00;;;;7399512;19;20584;-76
2022/11/23 07:00:05;;;;;;;14.63;3.80;;;0.70;99.90;1.30;92639.00;;;;7400639;19;20152;-78
2022/11/23 07:02:39;;;;;;;14.07;3.07;;;0.70;99.90;1.40;92632.00;;;;7401326;19;20132;-77
2022/11/23 07:05:07;;;;;;;9.00;3.80;;;0.70;99.90;1.50;92635.00;;;;7397815;19;20129;-77
2022/11/23 07:07:35;;;;;;;10.50;3.13;;;0.80;99.90;1.40;92629.00;;;;7399442;19;20145;-77
2022/11/23 07:10:09;;;;;;;11.07;2.97;;;0.80;99.90;1.40;92641.00;;;;7401338;19;20133;-77
2022/11/23 07:12:36;;;;;;;13.27;3.03;;;0.80;99.90;1.60;92628.00;;;;7399434;19;20583;-76
2022/11/23 07:15:03;;;;;;;11.97;3.10;;;0.90;99.90;1.70;92623.00;;;;7397946;19;20654;-77
2022/11/23 07:17:39;;;;;;;14.87;3.57;;;1.00;99.90;2.00;92655.00;;;;7399194;19;20204;-77
2022/11/23 07:20:20;;;;;;;13.83;3.20;;;1.10;99.90;1.90;92655.00;;;;7397977;19;20172;-77
2022/11/23 07:23:06;;;;;;;15.00;3.93;;;1.20;99.90;2.00;92660.00;;;;7399605;19;20129;-77
2022/11/23 07:25:36;;;;;;;10.80;3.40;;;1.30;99.90;2.20;92659.00;;;;7396286;19;20175;-77
2022/11/23 07:28:13;;;;;;;21.70;3.77;;;1.40;99.90;2.20;92666.00;;;;7398639;19;20140;-78
2022/11/23 07:30:42;;;;;;;13.03;3.53;;;1.50;99.90;2.40;92660.00;;;;7397688;19;20132;-77
2022/11/23 07:33:11;;;;;;;13.27;2.80;;;1.60;99.90;2.40;92653.00;;;;7394851;19;20136;-77
2022/11/23 07:35:46;;;;;;;12.87;3.00;;;1.60;99.90;2.40;92665.00;;;;7396394;19;20136;-77
2022/11/23 07:38:13;;;;;;;11.20;3.03;;;1.70;99.90;2.40;92663.00;;;;7394012;19;20152;-77
2022/11/23 07:40:47;;;;;;;11.33;2.80;;;1.70;99.90;2.50;92658.00;;;;7393654;19;20479;-76
2022/11/23 07:43:21;;;;;;;13.07;3.07;;;1.70;99.90;2.70;92633.00;;;;7393213;19;20144;-76
2022/11/23 07:45:48;;;;;;;10.20;3.17;;;1.80;99.90;2.80;92652.00;;;;7394685;19;20505;-77
2022/11/23 07:48:16;;;;;;;10.23;3.27;;;1.90;99.90;3.00;92650.00;;;;7393489;19;20151;-76
2022/11/23 07:50:54;;;;;;;19.77;3.67;;;2.00;99.90;2.90;92642.00;;;;7394771;19;20148;-76
2022/11/23 07:53:22;;;;;;;10.90;3.60;;;2.10;99.90;3.10;92657.00;;;;7394808;19;20141;-76
2022/11/23 07:55:56;;;;;;;10.60;3.23;;;2.10;99.90;3.10;92660.00;;;;7394065;19;20216;-76
2022/11/23 07:58:31;;;;;;;13.03;3.83;;;2.30;41.90;3.30;92648.00;;;;7395390;19;20136;-76
2022/11/23 08:00:59;;;;;;;11.33;3.33;;;2.40;5.70;3.60;92639.00;;;;7394325;19;20129;-76
2022/11/23 08:03:26;;;;;;;21.33;3.43;;;2.60;1.00;3.90;92649.00;;;;7394619;19;20621;-75
2022/11/23 08:05:59;;;;;;;10.13;3.00;;;2.70;1.00;3.90;92630.00;;;;7394144;19;20177;-77
2022/11/23 08:08:26;;;;;;;14.80;2.77;;;2.90;1.00;4.10;92650.00;;;;7393945;19;20228;-77
2022/11/23 08:10:54;;;;;;;9.37;2.43;;;3.00;99.90;4.40;92655.00;;;;7394079;19;20216;-76
2022/11/23 08:13:27;;;;;;;12.97;2.50;;;3.20;99.90;4.70;92638.00;;;;7393637;19;20519;-77
2022/11/23 08:15:55;;;;;;;6.53;2.27;;;3.30;1.00;4.80;92638.00;;;;7394946;19;20125;-74
2022/11/23 08:18:23;;;;;;;9.27;2.47;;;3.40;1.00;5.00;92640.00;;;;7394985;19;20587;-75
2022/11/23 08:21:11;;;;;;;14.53;2.73;;;3.50;1.00;5.40;92633.00;;;;7391974;19;20666;-74
2022/11/23 08:23:45;;;;;;;13.43;2.90;;;3.70;1.00;5.80;92630.00;;;;7393835;19;20132;-75
2022/11/23 08:26:19;;;;;;;8.03;2.27;;;3.90;99.90;5.80;92632.00;;;;7394028;19;20554;-76
2022/11/23 08:28:47;;;;;;;10.87;2.83;;;4.10;1.00;6.20;92632.00;;;;7392326;19;20141;-76
2022/11/23 08:31:14;;;;;;;10.03;2.80;;;4.40;1.00;6.20;92652.00;;;;7394780;19;20184;-76
2022/11/23 08:33:48;;;;;;;11.17;3.33;;;4.50;1.00;6.40;92621.00;;;;7391688;19;20144;-75
2022/11/23 08:36:15;;;;;;;10.07;3.07;;;4.90;99.90;6.70;92625.00;;;;7393908;19;20145;-76
2022/11/23 08:38:43;;;;;;;11.03;2.70;;;5.00;99.90;6.80;92642.00;;;;7393807;19;20153;-75
2022/11/23 08:41:20;;;;;;;10.40;1.83;;;5.20;99.90;7.00;92618.00;;;;7391802;19;20655;-75
2022/11/23 08:43:48;;;;;;;14.10;2.70;;;5.30;1.00;7.40;92638.00;;;;7392729;19;20155;-75
2022/11/23 08:46:15;;;;;;;5.23;2.10;;;5.40;1.00;7.40;92646.00;;;;7394206;19;20485;-75
2022/11/23 08:48:49;;;;;;;11.13;2.37;;;5.70;1.00;7.90;92627.00;;;;7393485;19;20480;-76
2022/11/23 08:51:21;;;;;;;7.57;1.77;;;;;7.50;92646.00;;;;7392641;19;20160;-75
2022/11/23 08:53:49;;;;;;;7.47;1.83;;;;;8.00;92650.00;;;;7393242;19;20140;-76
2022/11/23 08:56:24;;;;;;;4.67;2.00;;;;;8.00;92647.00;;;;7391954;19;20144;-76
2022/11/23 08:58:51;;;;;;;12.40;2.23;;;;;7.90;92640.00;;;;7390150;19;20203;-75
2022/11/23 09:01:19;;;;;;;5.00;1.70;;;;;8.60;92643.00;;;;7391175;19;20232;-76
2022/11/23 09:03:53;;;;;;;6.57;1.70;;;;;8.40;92638.00;;;;7392136;19;20145;-76
2022/11/23 09:06:27;;;;;;;3.80;1.90;;;;;8.90;92640.00;;;;7393719;19;20137;-76
2022/11/23 09:09:02;;;;;;;7.80;1.70;;;6.70;99.90;8.80;92641.00;;;;7391620;19;20601;-76
2022/11/23 09:11:29;;;;;;;7.17;1.90;;;6.80;99.90;8.70;92629.00;;;;7392137;19;20117;-76
2022/11/23 09:13:57;;;;;;;5.53;1.83;;;;;8.90;92641.00;;;;7391744;19;20192;-76
2022/11/23 09:16:32;;;;;;;5.30;1.65;;;;;9.00;92646.00;;;;7391429;19;20144;-76
2022/11/23 09:19:01;;;;;;;7.90;1.90;;;;;8.80;92649.00;;;;7391346;19;20716;-75
2022/11/23 09:21:32;;;;;;;8.02;1.92;;;;;9.00;92642.00;;;;7389745;19;20635;-77
2022/11/23 09:24:06;;;;;;;7.88;1.67;;;;;9.60;92646.00;;;;7392058;19;20156;-76
2022/11/23 09:26:33;;;;;;;6.97;1.83;;;;;9.60;92647.00;;;;7390917;19;20153;-76
2022/11/23 09:29:01;;;;;;;5.32;2.03;;;;;9.50;92641.00;;;;7395589;19;20153;-77
2022/11/23 09:31:38;;;;;;;6.47;1.58;;;;;10.00;92644.00;;;;7397194;19;20609;-76
2022/11/23 09:34:06;;;;;;;4.72;1.70;;;;;9.40;92652.00;;;;7398820;19;20144;-76
2022/11/23 09:36:33;;;;;;;5.97;1.63;;;8.60;99.90;10.00;92655.00;;;;7398231;19;20150;-78
2022/11/23 09:39:07;;;;;;;5.75;1.70;;;8.70;1.00;9.60;92650.00;;;;7399821;19;20588;-77
2022/11/23 09:42:01;;;;;;;7.95;1.67;;;8.90;1.00;9.80;92653.00;;;;7396310;19;20505;-77
2022/11/23 09:45:05;;;;;;;3.03;1.40;;;8.90;1.00;9.70;92653.00;;;;7398874;19;20129;-77
2022/11/23 09:47:48;;;;;;;5.07;1.50;;;8.70;99.90;9.80;92649.00;;;;7397863;19;20153;-77
2022/11/23 09:50:57;;;;;;;8.43;2.10;;;8.60;1.00;10.10;92628.00;;;;7399227;19;20135;-78
2022/11/23 09:53:43;;;;;;;6.28;2.03;;;8.50;99.90;10.60;92650.00;;;;7398093;19;20140;-77
2022/11/23 09:56:28;;;;;;;4.55;1.60;;;8.40;1.00;10.20;92642.00;;;;7397764;19;20165;-76
2022/11/23 09:59:01;;;;;;;4.78;1.67;;;8.80;1.00;10.90;92638.00;;;;7398013;19;20152;-77
2022/11/23 10:01:37;;;;;;;3.38;1.60;;;9.60;99.90;11.40;92625.00;;;;7396030;19;20607;-77
2022/11/23 10:04:14;;;;;;;4.97;1.70;;;10.10;1.00;11.70;92631.00;;;;7397870;19;20145;-77
2022/11/23 10:07:02;;;;;;;5.72;1.50;;;10.50;1.00;11.30;92635.00;;;;7399621;19;20607;-77
2022/11/23 10:10:07;;;;;;;4.43;1.63;;;;;11.40;92645.00;;;;7397406;19;20502;-77
2022/11/23 10:13:30;;;;;;;3.97;1.60;;;9.50;99.90;10.60;92641.00;;;;7398648;19;20155;-77
2022/11/23 10:16:36;;;;;;;4.75;1.55;;;9.50;1.00;11.70;92641.00;;;;7397610;19;20525;-76
2022/11/23 10:19:47;;;;;;;3.53;1.92;;;10.00;1.00;11.90;92641.00;;;;7397259;19;20535;-75
2022/11/23 10:22:55;;;;;;;4.70;1.73;;;10.30;1.00;11.70;92623.00;;;;7392527;19;20810;-75
2022/11/23 10:25:44;;;;;;;4.30;1.60;;;;;11.30;92645.00;;;;7397089;19;20136;-77
2022/11/23 10:28:15;;;;;;;3.95;1.60;;;;;11.20;92631.00;;;;7398342;19;20133;-77
2022/11/23 10:31:24;;;;;;;4.45;1.70;;;;;11.10;92634.00;;;;7395160;19;20149;-77
2022/11/23 10:34:12;;;;;;;2.13;1.27;;;;;11.80;92634.00;;;;7396161;19;20552;-76
2022/11/23 10:36:46;;;;;;;5.50;1.63;;;;;11.70;92623.00;;;;7397978;19;20743;-76
2022/11/23 10:39:26;;;;;;;3.30;1.23;;;9.00;1.00;11.90;92631.00;;;;7395880;19;20247;-75
2022/11/23 10:42:21;;;;;;;1.65;1.10;;;9.20;1.00;11.40;92622.00;;;;7396339;19;20230;-75
2022/11/23 10:44:51;;;;;;;5.20;1.60;;;9.00;99.20;11.50;92618.00;;;;7396170;19;20145;-75
2022/11/23 10:47:36;;;;;;;4.47;1.63;;;;;11.80;92634.00;;;;7396515;19;20148;-77
2022/11/23 10:50:20;;;;;;;1.60;1.20;;;;;11.50;92623.00;;;;7396242;19;20168;-77
2022/11/23 10:53:08;;;;;;;5.00;1.42;;;;;11.30;92630.00;;;;7395536;19;20616;-74
2022/11/23 10:56:10;;;;;;;3.92;1.65;;;;;11.80;92635.00;;;;7396027;19;20155;-74
2022/11/23 10:58:45;;;;;;;3.83;1.60;;;;;12.20;92627.00;;;;7396776;19;20132;-76
2022/11/23 11:01:23;;;;;;;5.65;1.70;;;;;12.10;92624.00;;;;7394824;19;20153;-75
2022/11/23 11:04:05;;;;;;;5.47;1.40;;;;;11.90;92622.00;;;;7397733;19;20603;-76
2022/11/23 11:06:34;;;;;;;3.67;1.30;;;;;12.20;92628.00;;;;7396652;19;20158;-74
2022/11/23 11:09:20;;;;;;;2.95;1.35;;;;;12.10;92622.00;;;;7397012;19;20128;-75
2022/11/23 11:11:51;;;;;;;2.05;1.08;;;;;11.90;92620.00;;;;7395546;19;20542;-75
2022/11/23 11:14:25;;;;;;;6.40;1.30;;;;;11.50;92625.00;;;;7395224;19;20160;-74
2022/11/23 11:16:54;;;;;;;3.58;1.40;;;;;11.80;92625.00;;;;7395031;19;20137;-75
2022/11/23 11:19:25;;;;;;;3.65;1.30;;;;;12.00;92625.00;;;;7395276;19;20608;-75
2022/11/23 11:22:07;;;;;;;2.38;1.10;;;;;11.90;92611.00;;;;7395360;19;20604;-75
2022/11/23 11:24:43;;;;;;;7.20;1.15;;;;;11.80;92613.00;;;;7396681;19;20132;-75
2022/11/23 11:27:21;;;;;;;3.05;1.30;;;;;12.10;92597.00;;;;7396308;19;20137;-75
2022/11/23 11:29:56;;;;;;;2.25;0.98;;;;;11.60;92603.00;;;;7394455;19;20593;-75
2022/11/23 11:33:06;;;;;;;5.75;1.50;;;;;11.80;92603.00;;;;7392733;19;20200;-75
2022/11/23 11:35:44;;;;;;;2.53;1.25;;;9.30;1.00;11.10;92583.00;;;;7394103;19;20132;-75
2022/11/23 11:38:30;;;;;;;3.42;1.25;;;9.10;1.00;11.20;92587.00;;;;7394083;19;20145;-75
2022/11/23 11:41:11;;;;;;;2.65;1.27;;;9.50;1.00;11.00;92579.00;;;;7394432;19;20619;-75
2022/11/23 11:44:11;;;;;;;4.18;1.40;;;9.70;1.00;10.70;92582.00;;;;7396136;19;20163;-75